Terminal Aerodrome Forecast
Issued by NWS

Home | Current Version | Previous Version | Text Only | Print | Product List | Glossary Off
Versions: 1 2 3 4 5 6 7 8 9 10 11 12 13 14 15 16

000
FTUS43 KDVN 240500
TAFBRL
TAF
KBRL 240520Z 2406/2506 12015G22KT P6SM BKN150
     FM241800 16013G20KT 4SM -SHRA BR VCTS OVC035CB
     FM242300 21010KT 3SM -RA BR OVC025
     FM250400 31012KT P6SM BKN050=

USA.gov is the U.S. government's official web portal to all federal, state and local government web resources and services.